sensor_id;sensor_type;location;lat;lon;timestamp;P1;durP1;ratioP1;P2;durP2;ratioP2
4053;SDS011;2042;47.956;9.222;2022-09-12T00:00:27;7.13;;;3.30;;
4053;SDS011;2042;47.956;9.222;2022-09-12T00:02:56;9.37;;;3.37;;
4053;SDS011;2042;47.956;9.222;2022-09-12T00:05:23;6.67;;;3.13;;
4053;SDS011;2042;47.956;9.222;2022-09-12T00:07:49;11.80;;;5.20;;
4053;SDS011;2042;47.956;9.222;2022-09-12T00:10:18;11.70;;;4.90;;
4053;SDS011;2042;47.956;9.222;2022-09-12T00:12:44;10.83;;;5.90;;
4053;SDS011;2042;47.956;9.222;2022-09-12T00:15:10;14.80;;;5.27;;
4053;SDS011;2042;47.956;9.222;2022-09-12T00:17:37;9.03;;;4.20;;
4053;SDS011;2042;47.956;9.222;2022-09-12T00:20:06;10.80;;;4.77;;
4053;SDS011;2042;47.956;9.222;2022-09-12T00:22:33;7.80;;;3.90;;
4053;SDS011;2042;47.956;9.222;2022-09-12T00:24:59;8.43;;;4.20;;
4053;SDS011;2042;47.956;9.222;2022-09-12T00:27:26;7.93;;;4.07;;
4053;SDS011;2042;47.956;9.222;2022-09-12T00:29:52;7.80;;;3.53;;
4053;SDS011;2042;47.956;9.222;2022-09-12T00:32:18;9.53;;;3.73;;
4053;SDS011;2042;47.956;9.222;2022-09-12T00:34:44;7.63;;;3.73;;
4053;SDS011;2042;47.956;9.222;2022-09-12T00:37:11;9.73;;;3.90;;
4053;SDS011;2042;47.956;9.222;2022-09-12T00:39:37;11.10;;;4.07;;
4053;SDS011;2042;47.956;9.222;2022-09-12T00:42:03;7.80;;;3.40;;
4053;SDS011;2042;47.956;9.222;2022-09-12T00:46:56;8.33;;;3.90;;
4053;SDS011;2042;47.956;9.222;2022-09-12T00:49:27;12.77;;;5.70;;
4053;SDS011;2042;47.956;9.222;2022-09-12T00:51:54;11.20;;;4.80;;
4053;SDS011;2042;47.956;9.222;2022-09-12T00:54:23;9.70;;;4.97;;
4053;SDS011;2042;47.956;9.222;2022-09-12T00:56:51;12.80;;;6.53;;
4053;SDS011;2042;47.956;9.222;2022-09-12T00:59:23;11.50;;;5.90;;
4053;SDS011;2042;47.956;9.222;2022-09-12T01:01:50;12.50;;;6.30;;
4053;SDS011;2042;47.956;9.222;2022-09-12T01:04:17;14.80;;;6.97;;
4053;SDS011;2042;47.956;9.222;2022-09-12T01:06:46;12.77;;;6.27;;
4053;SDS011;2042;47.956;9.222;2022-09-12T01:09:16;15.50;;;7.57;;
4053;SDS011;2042;47.956;9.222;2022-09-12T01:11:43;13.67;;;6.77;;
4053;SDS011;2042;47.956;9.222;2022-09-12T01:14:11;16.10;;;8.20;;
4053;SDS011;2042;47.956;9.222;2022-09-12T01:16:37;17.87;;;8.17;;
4053;SDS011;2042;47.956;9.222;2022-09-12T01:19:24;13.87;;;7.20;;
4053;SDS011;2042;47.956;9.222;2022-09-12T01:29:36;5.47;;;2.37;;
4053;SDS011;2042;47.956;9.222;2022-09-12T01:32:23;6.30;;;3.30;;
4053;SDS011;2042;47.956;9.222;2022-09-12T01:37:54;5.70;;;2.97;;
4053;SDS011;2042;47.956;9.222;2022-09-12T01:40:31;5.80;;;3.20;;
4053;SDS011;2042;47.956;9.222;2022-09-12T01:53:57;5.07;;;2.93;;
4053;SDS011;2042;47.956;9.222;2022-09-12T01:56:38;6.83;;;2.73;;
4053;SDS011;2042;47.956;9.222;2022-09-12T01:59:20;7.57;;;3.27;;
4053;SDS011;2042;47.956;9.222;2022-09-12T02:04:27;7.83;;;3.87;;
4053;SDS011;2042;47.956;9.222;2022-09-12T02:07:00;7.90;;;3.90;;
4053;SDS011;2042;47.956;9.222;2022-09-12T02:09:42;9.03;;;3.20;;
4053;SDS011;2042;47.956;9.222;2022-09-12T02:12:11;10.40;;;3.60;;
4053;SDS011;2042;47.956;9.222;2022-09-12T02:14:43;6.10;;;3.00;;
4053;SDS011;2042;47.956;9.222;2022-09-12T02:17:22;8.67;;;3.57;;
4053;SDS011;2042;47.956;9.222;2022-09-12T02:22:19;6.23;;;2.83;;
4053;SDS011;2042;47.956;9.222;2022-09-12T02:24:48;6.73;;;3.53;;
4053;SDS011;2042;47.956;9.222;2022-09-12T02:27:22;21.30;;;4.37;;
4053;SDS011;2042;47.956;9.222;2022-09-12T02:29:51;9.40;;;3.97;;
4053;SDS011;2042;47.956;9.222;2022-09-12T02:40:41;11.73;;;3.70;;
4053;SDS011;2042;47.956;9.222;2022-09-12T02:43:07;7.13;;;3.27;;
4053;SDS011;2042;47.956;9.222;2022-09-12T02:45:33;7.50;;;3.40;;
4053;SDS011;2042;47.956;9.222;2022-09-12T02:50:45;8.37;;;3.93;;
4053;SDS011;2042;47.956;9.222;2022-09-12T02:53:11;8.30;;;3.97;;
4053;SDS011;2042;47.956;9.222;2022-09-12T02:55:37;9.93;;;4.73;;
4053;SDS011;2042;47.956;9.222;2022-09-12T02:58:09;9.10;;;4.43;;
4053;SDS011;2042;47.956;9.222;2022-09-12T03:17:06;9.60;;;4.57;;
4053;SDS011;2042;47.956;9.222;2022-09-12T03:22:11;8.67;;;4.70;;
4053;SDS011;2042;47.956;9.222;2022-09-12T03:24:52;7.13;;;3.60;;
4053;SDS011;2042;47.956;9.222;2022-09-12T03:27:29;8.90;;;4.20;;
4053;SDS011;2042;47.956;9.222;2022-09-12T03:29:58;17.50;;;4.60;;
4053;SDS011;2042;47.956;9.222;2022-09-12T03:35:09;18.30;;;4.57;;
4053;SDS011;2042;47.956;9.222;2022-09-12T03:37:36;12.77;;;4.80;;
4053;SDS011;2042;47.956;9.222;2022-09-12T03:40:02;28.27;;;5.87;;
4053;SDS011;2042;47.956;9.222;2022-09-12T03:42:28;23.47;;;5.60;;
4053;SDS011;2042;47.956;9.222;2022-09-12T03:44:54;21.00;;;5.80;;
4053;SDS011;2042;47.956;9.222;2022-09-12T03:47:20;7.83;;;4.60;;
4053;SDS011;2042;47.956;9.222;2022-09-12T03:49:46;14.73;;;3.93;;
4053;SDS011;2042;47.956;9.222;2022-09-12T03:52:12;16.33;;;4.33;;
4053;SDS011;2042;47.956;9.222;2022-09-12T03:54:38;11.20;;;5.00;;
4053;SDS011;2042;47.956;9.222;2022-09-12T03:57:04;13.80;;;4.40;;
4053;SDS011;2042;47.956;9.222;2022-09-12T03:59:31;8.70;;;4.40;;
4053;SDS011;2042;47.956;9.222;2022-09-12T04:01:57;10.60;;;4.60;;
4053;SDS011;2042;47.956;9.222;2022-09-12T04:04:23;14.50;;;4.27;;
4053;SDS011;2042;47.956;9.222;2022-09-12T04:06:49;7.13;;;4.20;;
4053;SDS011;2042;47.956;9.222;2022-09-12T04:09:15;9.00;;;4.17;;
4053;SDS011;2042;47.956;9.222;2022-09-12T04:11:41;8.13;;;4.90;;
4053;SDS011;2042;47.956;9.222;2022-09-12T04:14:07;11.20;;;4.50;;
4053;SDS011;2042;47.956;9.222;2022-09-12T04:16:33;9.30;;;4.43;;
4053;SDS011;2042;47.956;9.222;2022-09-12T04:18:59;11.87;;;6.07;;
4053;SDS011;2042;47.956;9.222;2022-09-12T04:21:24;11.27;;;5.80;;
4053;SDS011;2042;47.956;9.222;2022-09-12T04:23:50;11.10;;;6.40;;
4053;SDS011;2042;47.956;9.222;2022-09-12T04:26:16;9.30;;;5.23;;
4053;SDS011;2042;47.956;9.222;2022-09-12T04:28:43;17.53;;;6.60;;
4053;SDS011;2042;47.956;9.222;2022-09-12T04:31:11;14.33;;;7.20;;
4053;SDS011;2042;47.956;9.222;2022-09-12T04:33:39;34.67;;;8.50;;
4053;SDS011;2042;47.956;9.222;2022-09-12T04:36:06;41.53;;;8.87;;
4053;SDS011;2042;47.956;9.222;2022-09-12T04:38:34;29.27;;;8.83;;
4053;SDS011;2042;47.956;9.222;2022-09-12T04:41:08;25.93;;;9.00;;
4053;SDS011;2042;47.956;9.222;2022-09-12T04:43:35;31.20;;;8.93;;
4053;SDS011;2042;47.956;9.222;2022-09-12T04:46:04;19.63;;;8.07;;
4053;SDS011;2042;47.956;9.222;2022-09-12T04:48:31;32.00;;;9.90;;
4053;SDS011;2042;47.956;9.222;2022-09-12T04:51:05;34.30;;;10.50;;
4053;SDS011;2042;47.956;9.222;2022-09-12T04:53:34;36.80;;;10.03;;
4053;SDS011;2042;47.956;9.222;2022-09-12T04:56:01;51.60;;;10.07;;
4053;SDS011;2042;47.956;9.222;2022-09-12T04:58:31;42.47;;;11.20;;
4053;SDS011;2042;47.956;9.222;2022-09-12T05:01:07;30.27;;;12.77;;
4053;SDS011;2042;47.956;9.222;2022-09-12T05:03:35;45.87;;;9.03;;
4053;SDS011;2042;47.956;9.222;2022-09-12T05:06:05;22.00;;;7.97;;
4053;SDS011;2042;47.956;9.222;2022-09-12T05:08:33;26.13;;;8.50;;
4053;SDS011;2042;47.956;9.222;2022-09-12T05:11:02;17.00;;;8.30;;
4053;SDS011;2042;47.956;9.222;2022-09-12T05:13:29;24.97;;;8.20;;
4053;SDS011;2042;47.956;9.222;2022-09-12T05:15:56;24.97;;;9.20;;
4053;SDS011;2042;47.956;9.222;2022-09-12T05:18:25;22.33;;;8.63;;
4053;SDS011;2042;47.956;9.222;2022-09-12T05:20:54;16.33;;;6.60;;
4053;SDS011;2042;47.956;9.222;2022-09-12T05:23:20;24.53;;;8.53;;
4053;SDS011;2042;47.956;9.222;2022-09-12T05:25:52;28.37;;;8.50;;
4053;SDS011;2042;47.956;9.222;2022-09-12T05:28:21;26.53;;;8.70;;
4053;SDS011;2042;47.956;9.222;2022-09-12T05:30:48;14.70;;;6.33;;
4053;SDS011;2042;47.956;9.222;2022-09-12T05:33:24;26.77;;;9.43;;
4053;SDS011;2042;47.956;9.222;2022-09-12T05:35:50;31.60;;;8.80;;
4053;SDS011;2042;47.956;9.222;2022-09-12T05:38:16;30.20;;;10.53;;
4053;SDS011;2042;47.956;9.222;2022-09-12T05:40:42;24.97;;;8.03;;
4053;SDS011;2042;47.956;9.222;2022-09-12T05:43:08;39.88;;;10.00;;
4053;SDS011;2042;47.956;9.222;2022-09-12T05:45:34;21.47;;;8.50;;
4053;SDS011;2042;47.956;9.222;2022-09-12T05:48:00;24.90;;;8.67;;
4053;SDS011;2042;47.956;9.222;2022-09-12T05:50:26;18.17;;;7.97;;
4053;SDS011;2042;47.956;9.222;2022-09-12T05:52:52;21.70;;;9.00;;
4053;SDS011;2042;47.956;9.222;2022-09-12T05:55:19;25.93;;;8.20;;
4053;SDS011;2042;47.956;9.222;2022-09-12T05:57:47;34.47;;;8.73;;
4053;SDS011;2042;47.956;9.222;2022-09-12T06:00:13;33.13;;;9.17;;
4053;SDS011;2042;47.956;9.222;2022-09-12T06:02:39;52.20;;;11.10;;
4053;SDS011;2042;47.956;9.222;2022-09-12T06:05:05;29.17;;;10.10;;
4053;SDS011;2042;47.956;9.222;2022-09-12T06:07:31;55.63;;;14.23;;
4053;SDS011;2042;47.956;9.222;2022-09-12T06:09:57;56.07;;;12.60;;
4053;SDS011;2042;47.956;9.222;2022-09-12T06:12:24;31.53;;;10.80;;
4053;SDS011;2042;47.956;9.222;2022-09-12T06:14:51;21.60;;;10.80;;
4053;SDS011;2042;47.956;9.222;2022-09-12T06:17:18;24.97;;;11.33;;
4053;SDS011;2042;47.956;9.222;2022-09-12T06:19:44;29.43;;;10.73;;
4053;SDS011;2042;47.956;9.222;2022-09-12T06:22:09;34.60;;;10.80;;
4053;SDS011;2042;47.956;9.222;2022-09-12T06:24:35;23.30;;;10.27;;
4053;SDS011;2042;47.956;9.222;2022-09-12T06:27:01;21.57;;;9.77;;
4053;SDS011;2042;47.956;9.222;2022-09-12T06:29:27;24.80;;;9.73;;
4053;SDS011;2042;47.956;9.222;2022-09-12T06:31:53;37.67;;;10.80;;
4053;SDS011;2042;47.956;9.222;2022-09-12T06:34:18;34.67;;;10.87;;
4053;SDS011;2042;47.956;9.222;2022-09-12T06:36:45;25.97;;;9.37;;
4053;SDS011;2042;47.956;9.222;2022-09-12T06:39:16;20.63;;;10.00;;
4053;SDS011;2042;47.956;9.222;2022-09-12T06:41:47;38.20;;;12.50;;
4053;SDS011;2042;47.956;9.222;2022-09-12T06:44:14;21.10;;;10.20;;
4053;SDS011;2042;47.956;9.222;2022-09-12T06:46:45;26.70;;;9.80;;
4053;SDS011;2042;47.956;9.222;2022-09-12T06:49:11;16.30;;;8.90;;
4053;SDS011;2042;47.956;9.222;2022-09-12T06:51:37;15.80;;;8.70;;
4053;SDS011;2042;47.956;9.222;2022-09-12T06:54:03;21.97;;;9.10;;
4053;SDS011;2042;47.956;9.222;2022-09-12T06:56:29;14.93;;;9.20;;
4053;SDS011;2042;47.956;9.222;2022-09-12T06:58:56;30.50;;;10.50;;
4053;SDS011;2042;47.956;9.222;2022-09-12T07:01:23;32.33;;;9.50;;
4053;SDS011;2042;47.956;9.222;2022-09-12T07:03:51;18.20;;;9.07;;
4053;SDS011;2042;47.956;9.222;2022-09-12T07:06:19;16.23;;;8.23;;
4053;SDS011;2042;47.956;9.222;2022-09-12T07:08:48;22.77;;;8.90;;
4053;SDS011;2042;47.956;9.222;2022-09-12T07:13:45;15.10;;;8.37;;
4053;SDS011;2042;47.956;9.222;2022-09-12T07:16:12;15.23;;;7.23;;
4053;SDS011;2042;47.956;9.222;2022-09-12T07:18:39;13.83;;;7.37;;
4053;SDS011;2042;47.956;9.222;2022-09-12T07:21:12;20.57;;;8.27;;
4053;SDS011;2042;47.956;9.222;2022-09-12T07:23:39;26.87;;;7.90;;
4053;SDS011;2042;47.956;9.222;2022-09-12T07:26:06;20.93;;;7.67;;
4053;SDS011;2042;47.956;9.222;2022-09-12T07:28:34;18.43;;;7.03;;
4053;SDS011;2042;47.956;9.222;2022-09-12T07:31:10;25.27;;;8.23;;
4053;SDS011;2042;47.956;9.222;2022-09-12T07:33:38;13.57;;;7.40;;
4053;SDS011;2042;47.956;9.222;2022-09-12T07:36:08;13.10;;;7.50;;
4053;SDS011;2042;47.956;9.222;2022-09-12T07:38:35;19.63;;;6.73;;
4053;SDS011;2042;47.956;9.222;2022-09-12T07:41:12;12.47;;;5.97;;
4053;SDS011;2042;47.956;9.222;2022-09-12T07:43:39;14.67;;;6.70;;
4053;SDS011;2042;47.956;9.222;2022-09-12T07:46:08;14.60;;;6.60;;
4053;SDS011;2042;47.956;9.222;2022-09-12T07:48:35;14.53;;;6.13;;
4053;SDS011;2042;47.956;9.222;2022-09-12T07:51:03;559.47;;;527.40;;
4053;SDS011;2042;47.956;9.222;2022-09-12T07:53:30;774.40;;;727.93;;
4053;SDS011;2042;47.956;9.222;2022-09-12T07:55:57;1999.90;;;999.90;;
4053;SDS011;2042;47.956;9.222;2022-09-12T07:58:23;1999.90;;;999.90;;
4053;SDS011;2042;47.956;9.222;2022-09-12T08:00:49;1195.93;;;999.90;;
4053;SDS011;2042;47.956;9.222;2022-09-12T08:03:15;646.97;;;613.43;;
4053;SDS011;2042;47.956;9.222;2022-09-12T08:05:41;841.00;;;794.23;;
4053;SDS011;2042;47.956;9.222;2022-09-12T08:08:07;1999.90;;;999.90;;
4053;SDS011;2042;47.956;9.222;2022-09-12T08:10:33;1999.90;;;999.90;;
4053;SDS011;2042;47.956;9.222;2022-09-12T08:12:59;1999.90;;;999.90;;
4053;SDS011;2042;47.956;9.222;2022-09-12T08:15:27;1999.90;;;999.90;;
4053;SDS011;2042;47.956;9.222;2022-09-12T08:17:53;1999.90;;;999.90;;
4053;SDS011;2042;47.956;9.222;2022-09-12T08:20:19;1999.90;;;999.90;;
4053;SDS011;2042;47.956;9.222;2022-09-12T08:22:45;1999.90;;;999.90;;
4053;SDS011;2042;47.956;9.222;2022-09-12T08:25:11;1999.90;;;999.90;;
4053;SDS011;2042;47.956;9.222;2022-09-12T08:27:37;1999.90;;;999.90;;
4053;SDS011;2042;47.956;9.222;2022-09-12T08:30:04;1999.90;;;999.90;;
4053;SDS011;2042;47.956;9.222;2022-09-12T08:32:33;1999.90;;;999.90;;
4053;SDS011;2042;47.956;9.222;2022-09-12T08:34:59;1999.90;;;999.90;;
4053;SDS011;2042;47.956;9.222;2022-09-12T08:37:25;1999.90;;;999.90;;
4053;SDS011;2042;47.956;9.222;2022-09-12T08:39:50;1999.90;;;999.90;;
4053;SDS011;2042;47.956;9.222;2022-09-12T08:42:23;1999.90;;;999.90;;
4053;SDS011;2042;47.956;9.222;2022-09-12T08:44:59;1999.90;;;999.90;;
4053;SDS011;2042;47.956;9.222;2022-09-12T08:47:31;1999.90;;;999.90;;
4053;SDS011;2042;47.956;9.222;2022-09-12T08:52:38;1999.90;;;999.90;;
4053;SDS011;2042;47.956;9.222;2022-09-12T09:14:27;1999.90;;;999.90;;
4053;SDS011;2042;47.956;9.222;2022-09-12T09:17:30;1999.90;;;999.90;;
4053;SDS011;2042;47.956;9.222;2022-09-12T09:19:58;1999.90;;;999.90;;
4053;SDS011;2042;47.956;9.222;2022-09-12T09:22:31;1999.90;;;999.90;;
4053;SDS011;2042;47.956;9.222;2022-09-12T09:25:01;1999.90;;;999.90;;
4053;SDS011;2042;47.956;9.222;2022-09-12T09:27:32;1999.90;;;999.90;;
4053;SDS011;2042;47.956;9.222;2022-09-12T09:30:00;1999.90;;;999.90;;
4053;SDS011;2042;47.956;9.222;2022-09-12T09:32:37;1999.90;;;999.90;;
4053;SDS011;2042;47.956;9.222;2022-09-12T09:35:49;1999.90;;;999.90;;
4053;SDS011;2042;47.956;9.222;2022-09-12T09:43:22;1999.90;;;999.90;;
4053;SDS011;2042;47.956;9.222;2022-09-12T09:45:50;1999.90;;;999.90;;
4053;SDS011;2042;47.956;9.222;2022-09-12T09:48:21;1999.90;;;999.90;;
4053;SDS011;2042;47.956;9.222;2022-09-12T09:50:48;1999.90;;;999.90;;
4053;SDS011;2042;47.956;9.222;2022-09-12T09:53:25;1999.90;;;999.90;;
4053;SDS011;2042;47.956;9.222;2022-09-12T09:55:52;1999.90;;;999.90;;
4053;SDS011;2042;47.956;9.222;2022-09-12T09:58:30;1999.90;;;999.90;;
4053;SDS011;2042;47.956;9.222;2022-09-12T10:01:00;1999.90;;;999.90;;
4053;SDS011;2042;47.956;9.222;2022-09-12T10:05:53;1999.90;;;999.90;;
4053;SDS011;2042;47.956;9.222;2022-09-12T10:08:24;1999.90;;;999.90;;
4053;SDS011;2042;47.956;9.222;2022-09-12T10:10:55;1999.90;;;999.90;;
4053;SDS011;2042;47.956;9.222;2022-09-12T10:13:36;1999.90;;;999.90;;
4053;SDS011;2042;47.956;9.222;2022-09-12T10:16:08;1999.90;;;999.90;;
4053;SDS011;2042;47.956;9.222;2022-09-12T10:18:42;1999.90;;;999.90;;
4053;SDS011;2042;47.956;9.222;2022-09-12T10:21:26;1999.90;;;999.90;;
4053;SDS011;2042;47.956;9.222;2022-09-12T10:24:03;1999.90;;;999.90;;
4053;SDS011;2042;47.956;9.222;2022-09-12T10:26:31;1999.90;;;999.90;;
4053;SDS011;2042;47.956;9.222;2022-09-12T10:29:00;1999.90;;;999.90;;
4053;SDS011;2042;47.956;9.222;2022-09-12T10:31:28;1999.90;;;999.90;;
4053;SDS011;2042;47.956;9.222;2022-09-12T10:33:55;1999.90;;;999.90;;
4053;SDS011;2042;47.956;9.222;2022-09-12T10:36:22;1999.90;;;999.90;;
4053;SDS011;2042;47.956;9.222;2022-09-12T10:38:49;1999.90;;;999.90;;
4053;SDS011;2042;47.956;9.222;2022-09-12T10:41:15;1999.90;;;999.90;;
4053;SDS011;2042;47.956;9.222;2022-09-12T10:43:41;1999.90;;;999.90;;
4053;SDS011;2042;47.956;9.222;2022-09-12T10:48:40;1999.90;;;999.90;;
4053;SDS011;2042;47.956;9.222;2022-09-12T10:51:10;1999.90;;;999.90;;
4053;SDS011;2042;47.956;9.222;2022-09-12T10:53:38;1999.90;;;999.90;;
4053;SDS011;2042;47.956;9.222;2022-09-12T10:56:18;1999.90;;;999.90;;
4053;SDS011;2042;47.956;9.222;2022-09-12T11:01:43;1999.90;;;999.90;;
4053;SDS011;2042;47.956;9.222;2022-09-12T11:06:57;1999.90;;;999.90;;
4053;SDS011;2042;47.956;9.222;2022-09-12T11:12:07;1999.90;;;999.90;;
4053;SDS011;2042;47.956;9.222;2022-09-12T11:14:43;1999.90;;;999.90;;
4053;SDS011;2042;47.956;9.222;2022-09-12T11:30:13;1999.90;;;999.90;;
4053;SDS011;2042;47.956;9.222;2022-09-12T11:32:50;1999.90;;;999.90;;
4053;SDS011;2042;47.956;9.222;2022-09-12T11:35:19;1999.90;;;999.90;;
4053;SDS011;2042;47.956;9.222;2022-09-12T11:43:20;1999.90;;;999.90;;
4053;SDS011;2042;47.956;9.222;2022-09-12T11:45:47;1999.90;;;999.90;;
4053;SDS011;2042;47.956;9.222;2022-09-12T11:48:56;1999.90;;;999.90;;
4053;SDS011;2042;47.956;9.222;2022-09-12T11:51:04;1999.90;;;999.90;;
4053;SDS011;2042;47.956;9.222;2022-09-12T11:53:33;1999.90;;;999.90;;
4053;SDS011;2042;47.956;9.222;2022-09-12T11:56:03;1999.90;;;999.90;;
4053;SDS011;2042;47.956;9.222;2022-09-12T11:58:30;1999.90;;;999.90;;
4053;SDS011;2042;47.956;9.222;2022-09-12T12:00:58;1999.90;;;999.90;;
4053;SDS011;2042;47.956;9.222;2022-09-12T12:03:40;1999.90;;;999.90;;
4053;SDS011;2042;47.956;9.222;2022-09-12T12:06:11;1999.90;;;999.90;;
4053;SDS011;2042;47.956;9.222;2022-09-12T12:08:46;1999.90;;;999.90;;
4053;SDS011;2042;47.956;9.222;2022-09-12T12:11:34;1999.90;;;999.90;;
4053;SDS011;2042;47.956;9.222;2022-09-12T12:14:14;1999.90;;;999.90;;
4053;SDS011;2042;47.956;9.222;2022-09-12T12:16:46;1999.90;;;999.90;;
4053;SDS011;2042;47.956;9.222;2022-09-12T12:21:42;1999.90;;;999.90;;
4053;SDS011;2042;47.956;9.222;2022-09-12T12:24:13;1999.90;;;999.90;;
4053;SDS011;2042;47.956;9.222;2022-09-12T12:26:42;1999.90;;;999.90;;
4053;SDS011;2042;47.956;9.222;2022-09-12T12:34:35;1999.90;;;999.90;;
4053;SDS011;2042;47.956;9.222;2022-09-12T12:44:56;1999.90;;;999.90;;
4053;SDS011;2042;47.956;9.222;2022-09-12T12:47:26;1999.90;;;999.90;;
4053;SDS011;2042;47.956;9.222;2022-09-12T12:50:39;1999.90;;;999.90;;
4053;SDS011;2042;47.956;9.222;2022-09-12T12:52:51;1999.90;;;999.90;;
4053;SDS011;2042;47.956;9.222;2022-09-12T12:55:35;1999.90;;;999.90;;
4053;SDS011;2042;47.956;9.222;2022-09-12T12:58:03;1999.90;;;999.90;;
4053;SDS011;2042;47.956;9.222;2022-09-12T13:00:34;1999.90;;;999.90;;
4053;SDS011;2042;47.956;9.222;2022-09-12T13:05:41;1999.90;;;999.90;;
4053;SDS011;2042;47.956;9.222;2022-09-12T13:16:08;1999.90;;;999.90;;
4053;SDS011;2042;47.956;9.222;2022-09-12T13:18:42;1999.90;;;999.90;;
4053;SDS011;2042;47.956;9.222;2022-09-12T13:21:13;1999.90;;;999.90;;
4053;SDS011;2042;47.956;9.222;2022-09-12T13:23:39;1999.90;;;999.90;;
4053;SDS011;2042;47.956;9.222;2022-09-12T13:26:23;1999.90;;;999.90;;
4053;SDS011;2042;47.956;9.222;2022-09-12T13:28:49;1999.90;;;999.90;;
4053;SDS011;2042;47.956;9.222;2022-09-12T13:31:35;1999.90;;;999.90;;
4053;SDS011;2042;47.956;9.222;2022-09-12T13:34:03;1999.90;;;999.90;;
4053;SDS011;2042;47.956;9.222;2022-09-12T13:41:39;1999.90;;;999.90;;
4053;SDS011;2042;47.956;9.222;2022-09-12T13:44:14;1999.90;;;999.90;;
4053;SDS011;2042;47.956;9.222;2022-09-12T13:46:43;1999.90;;;999.90;;
4053;SDS011;2042;47.956;9.222;2022-09-12T13:49:20;1999.90;;;999.90;;
4053;SDS011;2042;47.956;9.222;2022-09-12T13:52:08;1999.90;;;999.90;;
4053;SDS011;2042;47.956;9.222;2022-09-12T13:54:47;1999.90;;;999.90;;
4053;SDS011;2042;47.956;9.222;2022-09-12T13:59:54;1999.90;;;999.90;;
4053;SDS011;2042;47.956;9.222;2022-09-12T14:02:22;1999.90;;;999.90;;
4053;SDS011;2042;47.956;9.222;2022-09-12T14:04:50;1999.90;;;999.90;;
4053;SDS011;2042;47.956;9.222;2022-09-12T14:07:55;1999.90;;;999.90;;
4053;SDS011;2042;47.956;9.222;2022-09-12T14:12:54;1999.90;;;999.90;;
4053;SDS011;2042;47.956;9.222;2022-09-12T14:15:22;1999.90;;;999.90;;
4053;SDS011;2042;47.956;9.222;2022-09-12T14:17:52;1999.90;;;999.90;;
4053;SDS011;2042;47.956;9.222;2022-09-12T14:20:20;1999.90;;;999.90;;
4053;SDS011;2042;47.956;9.222;2022-09-12T14:22:48;1999.90;;;999.90;;
4053;SDS011;2042;47.956;9.222;2022-09-12T14:25:19;1999.90;;;999.90;;
4053;SDS011;2042;47.956;9.222;2022-09-12T14:27:49;1999.90;;;999.90;;
4053;SDS011;2042;47.956;9.222;2022-09-12T14:35:39;1999.90;;;999.90;;
4053;SDS011;2042;47.956;9.222;2022-09-12T14:40:40;1999.90;;;999.90;;
4053;SDS011;2042;47.956;9.222;2022-09-12T14:43:24;1999.90;;;999.90;;
4053;SDS011;2042;47.956;9.222;2022-09-12T14:46:00;1999.90;;;999.90;;
4053;SDS011;2042;47.956;9.222;2022-09-12T14:48:29;1999.90;;;999.90;;
4053;SDS011;2042;47.956;9.222;2022-09-12T14:50:58;1999.90;;;999.90;;
4053;SDS011;2042;47.956;9.222;2022-09-12T14:53:32;1999.90;;;999.90;;
4053;SDS011;2042;47.956;9.222;2022-09-12T14:58:36;1999.90;;;999.90;;
4053;SDS011;2042;47.956;9.222;2022-09-12T15:03:36;1999.90;;;999.90;;
4053;SDS011;2042;47.956;9.222;2022-09-12T15:06:21;1999.90;;;999.90;;
4053;SDS011;2042;47.956;9.222;2022-09-12T15:08:47;1999.90;;;999.90;;
4053;SDS011;2042;47.956;9.222;2022-09-12T15:11:13;1999.90;;;999.90;;
4053;SDS011;2042;47.956;9.222;2022-09-12T15:13:40;1999.90;;;999.90;;
4053;SDS011;2042;47.956;9.222;2022-09-12T15:16:07;749.60;;;705.07;;
4053;SDS011;2042;47.956;9.222;2022-09-12T15:18:34;1999.90;;;999.90;;
4053;SDS011;2042;47.956;9.222;2022-09-12T15:21:01;1999.90;;;999.90;;
4053;SDS011;2042;47.956;9.222;2022-09-12T15:23:45;1999.90;;;999.90;;
4053;SDS011;2042;47.956;9.222;2022-09-12T15:26:13;1999.90;;;999.90;;
4053;SDS011;2042;47.956;9.222;2022-09-12T15:28:40;1999.90;;;999.90;;
4053;SDS011;2042;47.956;9.222;2022-09-12T15:31:09;1999.90;;;999.90;;
4053;SDS011;2042;47.956;9.222;2022-09-12T15:33:36;1067.40;;;966.47;;
4053;SDS011;2042;47.956;9.222;2022-09-12T15:36:01;1297.30;;;999.90;;
4053;SDS011;2042;47.956;9.222;2022-09-12T15:38:27;1078.67;;;999.90;;
4053;SDS011;2042;47.956;9.222;2022-09-12T15:40:53;972.50;;;912.20;;
4053;SDS011;2042;47.956;9.222;2022-09-12T15:43:20;618.50;;;589.60;;
4053;SDS011;2042;47.956;9.222;2022-09-12T15:45:47;73.73;;;68.27;;
4053;SDS011;2042;47.956;9.222;2022-09-12T15:48:15;23.53;;;5.77;;
4053;SDS011;2042;47.956;9.222;2022-09-12T15:50:41;18.00;;;1.90;;
4053;SDS011;2042;47.956;9.222;2022-09-12T15:53:09;17.10;;;1.73;;
4053;SDS011;2042;47.956;9.222;2022-09-12T15:55:39;16.90;;;1.87;;
4053;SDS011;2042;47.956;9.222;2022-09-12T15:58:05;17.17;;;1.50;;
4053;SDS011;2042;47.956;9.222;2022-09-12T16:00:31;17.40;;;1.20;;
4053;SDS011;2042;47.956;9.222;2022-09-12T16:02:57;13.80;;;1.10;;
4053;SDS011;2042;47.956;9.222;2022-09-12T16:05:24;13.30;;;1.10;;
4053;SDS011;2042;47.956;9.222;2022-09-12T16:07:51;15.20;;;2.60;;
4053;SDS011;2042;47.956;9.222;2022-09-12T16:10:19;15.20;;;2.10;;
4053;SDS011;2042;47.956;9.222;2022-09-12T16:12:47;15.73;;;1.60;;
4053;SDS011;2042;47.956;9.222;2022-09-12T16:15:15;13.93;;;1.20;;
4053;SDS011;2042;47.956;9.222;2022-09-12T16:17:42;13.90;;;1.10;;
4053;SDS011;2042;47.956;9.222;2022-09-12T16:20:08;10.00;;;1.07;;
4053;SDS011;2042;47.956;9.222;2022-09-12T16:22:35;9.80;;;1.30;;
4053;SDS011;2042;47.956;9.222;2022-09-12T16:25:00;7.83;;;1.20;;
4053;SDS011;2042;47.956;9.222;2022-09-12T16:27:26;7.27;;;1.10;;
4053;SDS011;2042;47.956;9.222;2022-09-12T16:29:52;6.70;;;1.00;;
4053;SDS011;2042;47.956;9.222;2022-09-12T16:32:18;5.60;;;0.90;;
4053;SDS011;2042;47.956;9.222;2022-09-12T16:34:43;6.00;;;1.37;;
4053;SDS011;2042;47.956;9.222;2022-09-12T16:37:09;4.27;;;1.00;;
4053;SDS011;2042;47.956;9.222;2022-09-12T16:39:35;4.10;;;1.00;;
4053;SDS011;2042;47.956;9.222;2022-09-12T16:42:01;4.40;;;1.00;;
4053;SDS011;2042;47.956;9.222;2022-09-12T16:44:27;4.43;;;1.10;;
4053;SDS011;2042;47.956;9.222;2022-09-12T16:46:53;3.80;;;1.00;;
4053;SDS011;2042;47.956;9.222;2022-09-12T16:49:19;4.27;;;1.20;;
4053;SDS011;2042;47.956;9.222;2022-09-12T16:51:45;4.60;;;1.13;;
4053;SDS011;2042;47.956;9.222;2022-09-12T16:54:14;4.00;;;1.00;;
4053;SDS011;2042;47.956;9.222;2022-09-12T16:56:41;4.23;;;1.17;;
4053;SDS011;2042;47.956;9.222;2022-09-12T16:59:08;4.67;;;1.17;;
4053;SDS011;2042;47.956;9.222;2022-09-12T17:01:36;4.80;;;1.00;;
4053;SDS011;2042;47.956;9.222;2022-09-12T17:04:02;4.30;;;1.00;;
4053;SDS011;2042;47.956;9.222;2022-09-12T17:06:28;4.17;;;1.20;;
4053;SDS011;2042;47.956;9.222;2022-09-12T17:08:56;4.43;;;1.63;;
4053;SDS011;2042;47.956;9.222;2022-09-12T17:11:29;4.10;;;1.10;;
4053;SDS011;2042;47.956;9.222;2022-09-12T17:13:58;5.80;;;1.50;;
4053;SDS011;2042;47.956;9.222;2022-09-12T17:16:25;4.20;;;1.07;;
4053;SDS011;2042;47.956;9.222;2022-09-12T17:18:52;7.10;;;1.70;;
4053;SDS011;2042;47.956;9.222;2022-09-12T17:21:18;6.63;;;2.00;;
4053;SDS011;2042;47.956;9.222;2022-09-12T17:23:45;4.07;;;1.10;;
4053;SDS011;2042;47.956;9.222;2022-09-12T17:26:11;4.20;;;1.03;;
4053;SDS011;2042;47.956;9.222;2022-09-12T17:28:37;4.97;;;1.50;;
4053;SDS011;2042;47.956;9.222;2022-09-12T17:31:05;6.63;;;1.20;;
4053;SDS011;2042;47.956;9.222;2022-09-12T17:33:32;5.17;;;1.60;;
4053;SDS011;2042;47.956;9.222;2022-09-12T17:35:59;4.57;;;1.30;;
4053;SDS011;2042;47.956;9.222;2022-09-12T17:38:26;4.77;;;1.43;;
4053;SDS011;2042;47.956;9.222;2022-09-12T17:40:55;3.80;;;1.17;;
4053;SDS011;2042;47.956;9.222;2022-09-12T17:43:20;4.33;;;1.60;;
4053;SDS011;2042;47.956;9.222;2022-09-12T17:45:49;15.53;;;1.80;;
4053;SDS011;2042;47.956;9.222;2022-09-12T17:48:21;5.13;;;1.50;;